| time (UTC) | temp C | wind direction | speed KPH | gust KPH | rain 1hr cm | rain 24hr cm | rain mn cm | humidity % | barometer mb |
| 20260507170022 | 15 | 320 | 4.8 | 12.9 | 0.00 | 0.00 | 0.00 | 41 | 1051.6 |
| 20260507165517 | 15 | 328 | 17.7 | 24.1 | 0.00 | 0.00 | 0.00 | 44 | 1051.5 |
| 20260507165014 | 14 | 285 | 11.3 | 17.7 | 0.00 | 0.00 | 0.00 | 44 | 1051.5 |
| 20260507164510 | 14 | 290 | 6.4 | 14.5 | 0.00 | 0.00 | 0.00 | 46 | 1051.8 |
| 20260507164007 | 15 | 312 | 9.7 | 12.9 | 0.00 | 0.00 | 0.00 | 47 | 1052.0 |
| 20260507163504 | 14 | 284 | 6.4 | 11.3 | 0.00 | 0.00 | 0.00 | 45 | 1051.5 |
| 20260507163002 | 14 | 283 | 14.5 | 16.1 | 0.00 | 0.00 | 0.00 | 40 | 1051.6 |
| 20260507162457 | 15 | 277 | 9.7 | 14.5 | 0.00 | 0.00 | 0.00 | 47 | 1051.7 |
| 20260507161954 | 14 | 343 | 8.0 | 11.3 | 0.00 | 0.00 | 0.00 | 49 | 1051.7 |
| 20260507161450 | 14 | 339 | 9.7 | 20.9 | 0.00 | 0.00 | 0.00 | 46 | 1051.9 |
| 20260507160947 | 14 | 327 | 11.3 | 16.1 | 0.00 | 0.00 | 0.00 | 46 | 1051.9 |
| 20260507160443 | 14 | 282 | 11.3 | 14.5 | 0.00 | 0.00 | 0.00 | 44 | 1051.8 |
| 20260507155939 | 14 | 312 | 9.7 | 11.3 | 0.00 | 0.00 | 0.00 | 45 | 1051.9 |
| 20260507155435 | 13 | 283 | 6.4 | 14.5 | 0.00 | 0.00 | 0.00 | 47 | 1051.8 |
| 20260507154932 | 13 | 328 | 8.0 | 12.9 | 0.00 | 0.00 | 0.00 | 53 | 1051.9 |
| 20260507154429 | 13 | 12 | 4.8 | 14.5 | 0.00 | 0.00 | 0.00 | 44 | 1052.0 |
| 20260507153927 | 13 | 317 | 12.9 | 16.1 | 0.00 | 0.00 | 0.00 | 48 | 1051.8 |
| 20260507153423 | 13 | 337 | 12.9 | 16.1 | 0.00 | 0.00 | 0.00 | 52 | 1051.7 |
| 20260507152919 | 13 | 348 | 6.4 | 9.7 | 0.00 | 0.00 | 0.00 | 46 | 1051.8 |
| 20260507152415 | 13 | 288 | 8.0 | 17.7 | 0.00 | 0.00 | 0.00 | 48 | 1051.4 |
| 20260507151911 | 13 | 322 | 6.4 | 11.3 | 0.00 | 0.00 | 0.00 | 48 | 1051.8 |
| 20260507151408 | 13 | 345 | 8.0 | 14.5 | 0.00 | 0.00 | 0.00 | 51 | 1051.6 |
| 20260507150905 | 13 | 319 | 14.5 | 17.7 | 0.00 | 0.00 | 0.00 | 48 | 1051.7 |
| 20260507150402 | 12 | 335 | 9.7 | 16.1 | 0.00 | 0.00 | 0.00 | 48 | 1051.8 |
| 20260507145858 | 12 | 301 | 11.3 | 16.1 | 0.00 | 0.00 | 0.00 | 49 | 1051.7 |
| 20260507145354 | 12 | 311 | 8.0 | 12.9 | 0.00 | 0.00 | 0.00 | 48 | 1051.6 |
| 20260507144852 | 12 | 285 | 8.0 | 12.9 | 0.00 | 0.00 | 0.00 | 54 | 1051.7 |
| 20260507144349 | 12 | 296 | 8.0 | 11.3 | 0.00 | 0.00 | 0.00 | 52 | 1051.6 |
| 20260507143845 | 12 | 324 | 8.0 | 12.9 | 0.00 | 0.00 | 0.00 | 50 | 1051.5 |
| 20260507143343 | 12 | 320 | 6.4 | 12.9 | 0.00 | 0.00 | 0.00 | 49 | 1051.5 |
| 20260507142839 | 12 | 334 | 4.8 | 11.3 | 0.00 | 0.00 | 0.00 | 49 | 1051.6 |
| 20260507142335 | 12 | 306 | 11.3 | 16.1 | 0.00 | 0.00 | 0.00 | 55 | 1051.5 |
| 20260507141832 | 12 | 308 | 11.3 | 16.1 | 0.00 | 0.00 | 0.00 | 50 | 1051.6 |
| 20260507141328 | 12 | 348 | 11.3 | 14.5 | 0.00 | 0.00 | 0.00 | 50 | 1051.7 |
| 20260507140825 | 12 | 330 | 14.5 | 17.7 | 0.00 | 0.00 | 0.00 | 52 | 1051.5 |
| 20260507140322 | 12 | 20 | 11.3 | 14.5 | 0.00 | 0.00 | 0.00 | 51 | 1051.5 |
| 20260507135820 | 12 | 3 | 8.0 | 14.5 | 0.00 | 0.00 | 0.00 | 55 | 1051.7 |
| 20260507135316 | 12 | 15 | 8.0 | 12.9 | 0.00 | 0.00 | 0.00 | 53 | 1051.7 |
| 20260507134814 | 11 | 7 | 4.8 | 14.5 | 0.00 | 0.00 | 0.00 | 56 | 1051.7 |
| 20260507134309 | 11 | 11 | 8.0 | 14.5 | 0.00 | 0.00 | 0.00 | 54 | 1051.6 |
| 20260507133805 | 11 | 39 | 6.4 | 11.3 | 0.00 | 0.00 | 0.00 | 55 | 1051.6 |
| 20260507133302 | 11 | 12 | 6.4 | 11.3 | 0.00 | 0.00 | 0.00 | 55 | 1051.4 |
| 20260507132800 | 11 | 11 | 8.0 | 11.3 | 0.00 | 0.00 | 0.00 | 56 | 1051.6 |
| 20260507132256 | 11 | 13 | 9.7 | 11.3 | 0.00 | 0.00 | 0.00 | 56 | 1051.5 |
| 20260507131753 | 11 | 358 | 3.2 | 6.4 | 0.00 | 0.00 | 0.00 | 58 | 1051.5 |
| 20260507131250 | 11 | 22 | 8.0 | 11.3 | 0.00 | 0.00 | 0.00 | 58 | 1051.7 |
| 20260507130747 | 10 | 23 | 6.4 | 9.7 | 0.00 | 0.00 | 0.00 | 59 | 1051.5 |
| 20260507130244 | 10 | 352 | 3.2 | 9.7 | 0.00 | 0.00 | 0.00 | 63 | 1051.4 |
| 20260507125743 | 10 | 340 | 6.4 | 12.9 | 0.00 | 0.00 | 0.00 | 61 | 1051.5 |
| 20260507125240 | 10 | 330 | 9.7 | 12.9 | 0.00 | 0.00 | 0.00 | 61 | 1051.7 |
| 20260507124737 | 10 | 348 | 6.4 | 11.3 | 0.00 | 0.00 | 0.00 | 65 | 1051.4 |
| 20260507124234 | 10 | 15 | 9.7 | 11.3 | 0.00 | 0.00 | 0.00 | 65 | 1051.6 |
| 20260507123732 | 9 | 12 | 11.3 | 14.5 | 0.00 | 0.00 | 0.00 | 64 | 1051.8 |
| 20260507123229 | 9 | 337 | 11.3 | 12.9 | 0.00 | 0.00 | 0.00 | 65 | 1051.7 |
| 20260507122724 | 9 | 23 | 9.7 | 12.9 | 0.00 | 0.00 | 0.00 | 64 | 1051.7 |
| 20260507122221 | 8 | 334 | 12.9 | 14.5 | 0.00 | 0.00 | 0.00 | 67 | 1051.6 |
| 20260507121716 | 8 | 313 | 8.0 | 11.3 | 0.00 | 0.00 | 0.00 | 69 | 1051.8 |
| 20260507121212 | 8 | 324 | 3.2 | 9.7 | 0.00 | 0.00 | 0.00 | 72 | 1051.9 |
| 20260507120709 | 8 | 345 | 6.4 | 11.3 | 0.00 | 0.00 | 0.00 | 73 | 1051.7 |
| 20260507120206 | 8 | 331 | 6.4 | 9.7 | 0.00 | 0.00 | 0.00 | 73 | 1051.8 |
| 20260507115702 | 8 | 342 | 4.8 | 11.3 | 0.00 | 0.00 | 0.00 | 73 | 1051.9 |
| 20260507115158 | 8 | 13 | 3.2 | 9.7 | 0.00 | 0.00 | 0.00 | 75 | 1051.6 |
| 20260507114654 | 7 | 335 | 6.4 | 9.7 | 0.00 | 0.00 | 0.00 | 74 | 1051.6 |
| 20260507114151 | 7 | 328 | 4.8 | 11.3 | 0.00 | 0.00 | 0.00 | 74 | 1051.8 |
| 20260507113648 | 7 | 337 | 3.2 | 6.4 | 0.00 | 0.00 | 0.00 | 76 | 1051.7 |
| 20260507113145 | 7 | 320 | 4.8 | 9.7 | 0.00 | 0.00 | 0.00 | 77 | 1051.6 |
| 20260507112643 | 7 | 328 | 3.2 | 6.4 | 0.00 | 0.00 | 0.00 | 78 | 1051.5 |
| 20260507112139 | 7 | 330 | 3.2 | 6.4 | 0.00 | 0.00 | 0.00 | 79 | 1051.6 |
| 20260507111637 | 7 | 322 | 6.4 | 6.4 | 0.00 | 0.00 | 0.00 | 79 | 1051.3 |
| 20260507111133 | 7 | 337 | 4.8 | 6.4 | 0.00 | 0.00 | 0.00 | 79 | 1051.1 |
| 20260507110629 | 7 | 344 | 6.4 | 9.7 | 0.00 | 0.00 | 0.00 | 81 | 1051.2 |
| 20260507110126 | 7 | 325 | 3.2 | 4.8 | 0.00 | 0.00 | 0.00 | 82 | 1051.2 |
| 20260507105623 | 6 | 322 | 4.8 | 4.8 | 0.00 | 0.00 | 0.00 | 83 | 1051.1 |
| 20260507105119 | 6 | 321 | 1.6 | 4.8 | 0.00 | 0.00 | 0.00 | 84 | 1050.9 |
| 20260507104617 | 6 | 314 | 1.6 | 3.2 | 0.00 | 0.00 | 0.00 | 84 | 1050.8 |
| 20260507104113 | 6 | 317 | 1.6 | 3.2 | 0.00 | 0.00 | 0.00 | 84 | 1050.9 |
| 20260507103609 | 6 | 316 | 1.6 | 3.2 | 0.00 | 0.00 | 0.00 | 85 | 1050.9 |
| 20260507103106 | 6 | 308 | 3.2 | 3.2 | 0.00 | 0.00 | 0.00 | 84 | 1050.8 |
| 20260507102602 | 6 | 321 | 3.2 | 4.8 | 0.00 | 0.00 | 0.00 | 84 | 1050.7 |
| 20260507102059 | 6 | 321 | 1.6 | 1.6 | 0.00 | 0.00 | 0.00 | 85 | 1050.8 |
| 20260507101554 | 6 | 322 | 1.6 | 1.6 | 0.00 | 0.00 | 0.00 | 85 | 1050.7 |
| 20260507101051 | 6 | 322 | 1.6 | 1.6 | 0.00 | 0.00 | 0.00 | 86 | 1050.7 |
| 20260507100548 | 6 | 322 | 0.0 | 1.6 | 0.00 | 0.00 | 0.00 | 86 | 1050.8 |
| 20260507100046 | 6 | 322 | 0.0 | 1.6 | 0.00 | 0.00 | 0.00 | 86 | 1050.8 |
| 20260507095544 | 6 | 322 | 0.0 | 1.6 | 0.00 | 0.00 | 0.00 | 86 | 1050.8 |
| 20260507095040 | 6 | 322 | 0.0 | 1.6 | 0.00 | 0.00 | 0.00 | 86 | 1051.1 |
| 20260507094536 | 6 | 322 | 0.0 | 1.6 | 0.00 | 0.00 | 0.00 | 86 | 1050.5 |
| 20260507094034 | 6 | 322 | 0.0 | 0.0 | 0.00 | 0.00 | 0.00 | 85 | 1050.5 |
| 20260507093531 | 7 | 322 | 0.0 | 0.0 | 0.00 | 0.00 | 0.00 | 84 | 1050.8 |
| 20260507093030 | 7 | 322 | 0.0 | 0.0 | 0.00 | 0.00 | 0.00 | 83 | 1050.8 |
| 20260507092525 | 7 | 322 | 0.0 | 1.6 | 0.00 | 0.00 | 0.00 | 83 | 1050.9 |
| 20260507092022 | 7 | 322 | 1.6 | 1.6 | 0.00 | 0.00 | 0.00 | 82 | 1050.7 |
| 20260507091519 | 7 | 323 | 0.0 | 0.0 | 0.00 | 0.00 | 0.00 | 82 | 1050.7 |
| 20260507091015 | 7 | 322 | 0.0 | 0.0 | 0.00 | 0.00 | 0.00 | 82 | 1050.9 |
| 20260507090511 | 7 | 323 | 0.0 | 1.6 | 0.00 | 0.00 | 0.00 | 81 | 1050.7 |
| 20260507090008 | 7 | 322 | 0.0 | 1.6 | 0.00 | 0.00 | 0.00 | 80 | 1050.4 |
| 20260507085505 | 8 | 323 | 0.0 | 3.2 | 0.00 | 0.00 | 0.00 | 79 | 1050.8 |
| 20260507085002 | 8 | 323 | 1.6 | 3.2 | 0.00 | 0.00 | 0.00 | 79 | 1050.3 |
| 20260507084459 | 8 | 324 | 1.6 | 1.6 | 0.00 | 0.00 | 0.00 | 80 | 1050.5 |
| 20260507083955 | 7 | 321 | 3.2 | 3.2 | 0.00 | 0.00 | 0.00 | 80 | 1050.7 |
| 20260507083452 | 7 | 295 | 1.6 | 1.6 | 0.00 | 0.00 | 0.00 | 81 | 1050.5 |
| 20260507082948 | 8 | 300 | 1.6 | 1.6 | 0.00 | 0.00 | 0.00 | 79 | 1050.7 |
| 20260507082444 | 8 | 320 | 1.6 | 1.6 | 0.00 | 0.00 | 0.00 | 78 | 1050.4 |
| 20260507081941 | 8 | 319 | 0.0 | 1.6 | 0.00 | 0.00 | 0.00 | 77 | 1050.1 |
| 20260507081438 | 8 | 322 | 1.6 | 3.2 | 0.00 | 0.00 | 0.00 | 77 | 1050.3 |
| 20260507080935 | 8 | 320 | 1.6 | 3.2 | 0.00 | 0.00 | 0.00 | 77 | 1050.2 |
| 20260507080431 | 8 | 322 | 3.2 | 4.8 | 0.00 | 0.00 | 0.00 | 77 | 1050.2 |
| 20260507075926 | 8 | 326 | 3.2 | 4.8 | 0.00 | 0.00 | 0.00 | 77 | 1050.2 |
| 20260507075422 | 8 | 315 | 3.2 | 3.2 | 0.00 | 0.00 | 0.00 | 77 | 1050.2 |
| 20260507074919 | 8 | 323 | 1.6 | 4.8 | 0.00 | 0.00 | 0.00 | 77 | 1050.1 |
| 20260507074416 | 8 | 327 | 3.2 | 3.2 | 0.00 | 0.00 | 0.00 | 77 | 1050.2 |
| 20260507073914 | 8 | 316 | 3.2 | 3.2 | 0.00 | 0.00 | 0.00 | 77 | 1050.1 |
| 20260507073410 | 8 | 319 | 3.2 | 3.2 | 0.00 | 0.00 | 0.00 | 77 | 1050.1 |
| 20260507072907 | 8 | 318 | 1.6 | 3.2 | 0.00 | 0.00 | 0.00 | 77 | 1050.3 |
| 20260507072404 | 8 | 310 | 0.0 | 1.6 | 0.00 | 0.00 | 0.00 | 78 | 1050.2 |
| 20260507071902 | 8 | 313 | 1.6 | 3.2 | 0.00 | 0.00 | 0.00 | 77 | 1050.5 |
| 20260507071359 | 8 | 314 | 1.6 | 3.2 | 0.00 | 0.00 | 0.00 | 77 | 1050.4 |
| 20260507070855 | 9 | 314 | 1.6 | 3.2 | 0.00 | 0.00 | 0.00 | 76 | 1050.2 |
| 20260507070353 | 9 | 319 | 1.6 | 1.6 | 0.00 | 0.00 | 0.00 | 77 | 1050.2 |
| 20260507065849 | 9 | 323 | 1.6 | 1.6 | 0.00 | 0.00 | 0.00 | 77 | 1050.2 |
| 20260507065346 | 9 | 327 | 1.6 | 3.2 | 0.00 | 0.00 | 0.00 | 77 | 1050.2 |
| 20260507064843 | 8 | 331 | 1.6 | 1.6 | 0.00 | 0.00 | 0.00 | 78 | 1050.4 |
| 20260507064342 | 9 | 333 | 1.6 | 3.2 | 0.00 | 0.00 | 0.00 | 78 | 1050.3 |
| 20260507063839 | 9 | 335 | 0.0 | 1.6 | 0.00 | 0.00 | 0.00 | 77 | 1050.4 |
| 20260507063335 | 9 | 335 | 1.6 | 1.6 | 0.00 | 0.00 | 0.00 | 76 | 1050.8 |
| 20260507062832 | 9 | 335 | 1.6 | 3.2 | 0.00 | 0.00 | 0.00 | 77 | 1050.1 |
| 20260507062329 | 8 | 325 | 1.6 | 3.2 | 0.00 | 0.00 | 0.00 | 78 | 1050.3 |
| 20260507061827 | 9 | 323 | 0.0 | 0.0 | 0.00 | 0.00 | 0.00 | 80 | 1050.5 |
| 20260507061325 | 9 | 323 | 0.0 | 0.0 | 0.00 | 0.00 | 0.00 | 78 | 1050.5 |
| 20260507060823 | 10 | 323 | 0.0 | 0.0 | 0.00 | 0.00 | 0.00 | 76 | 1051.1 |
| 20260507060320 | 9 | 324 | 0.0 | 1.6 | 0.00 | 0.00 | 0.00 | 75 | 1051.0 |
| 20260507055816 | 9 | 324 | 1.6 | 1.6 | 0.00 | 0.00 | 0.00 | 76 | 1050.9 |
| 20260507055311 | 10 | 324 | 0.0 | 1.6 | 0.00 | 0.00 | 0.00 | 77 | 1050.8 |
| 20260507054808 | 10 | 324 | 0.0 | 1.6 | 0.00 | 0.00 | 0.00 | 75 | 1050.5 |
| 20260507054305 | 10 | 327 | 0.0 | 1.6 | 0.00 | 0.00 | 0.00 | 73 | 1050.5 |
| 20260507053802 | 10 | 327 | 1.6 | 1.6 | 0.00 | 0.00 | 0.00 | 73 | 1050.4 |
| 20260507053259 | 10 | 328 | 1.6 | 1.6 | 0.00 | 0.00 | 0.00 | 73 | 1050.3 |
| 20260507052758 | 10 | 327 | 0.0 | 3.2 | 0.00 | 0.00 | 0.00 | 72 | 1050.4 |
| 20260507052254 | 10 | 343 | 1.6 | 3.2 | 0.00 | 0.00 | 0.00 | 73 | 1050.3 |
| 20260507051753 | 10 | 321 | 3.2 | 4.8 | 0.00 | 0.00 | 0.00 | 72 | 1050.3 |
| 20260507051249 | 10 | 318 | 1.6 | 3.2 | 0.00 | 0.00 | 0.00 | 73 | 1050.5 |
| 20260507050746 | 10 | 322 | 3.2 | 3.2 | 0.00 | 0.00 | 0.00 | 73 | 1050.7 |
| 20260507050243 | 10 | 327 | 1.6 | 3.2 | 0.00 | 0.00 | 0.00 | 72 | 1050.7 |
| 20260507045740 | 10 | 321 | 3.2 | 3.2 | 0.00 | 0.00 | 0.00 | 72 | 1050.5 |
| 20260507045235 | 10 | 329 | 3.2 | 3.2 | 0.00 | 0.00 | 0.00 | 71 | 1050.5 |
| 20260507044733 | 10 | 307 | 0.0 | 1.6 | 0.00 | 0.00 | 0.00 | 74 | 1050.5 |
| 20260507044229 | 10 | 301 | 0.0 | 0.0 | 0.00 | 0.00 | 0.00 | 74 | 1050.5 |
| 20260507043726 | 10 | 300 | 0.0 | 0.0 | 0.00 | 0.00 | 0.00 | 75 | 1050.7 |
| 20260507043223 | 10 | 300 | 0.0 | 0.0 | 0.00 | 0.00 | 0.00 | 71 | 1050.9 |
| 20260507042719 | 10 | 300 | 0.0 | 0.0 | 0.00 | 0.00 | 0.00 | 71 | 1051.0 |
| 20260507042214 | 10 | 300 | 0.0 | 0.0 | 0.00 | 0.00 | 0.00 | 70 | 1050.8 |
| 20260507041712 | 11 | 300 | 0.0 | 0.0 | 0.00 | 0.00 | 0.00 | 70 | 1050.7 |
| 20260507041208 | 11 | 300 | 0.0 | 0.0 | 0.00 | 0.00 | 0.00 | 70 | 1050.9 |
| 20260507040705 | 11 | 300 | 0.0 | 0.0 | 0.00 | 0.00 | 0.00 | 69 | 1051.1 |
| 20260507040201 | 11 | 300 | 0.0 | 0.0 | 0.00 | 0.00 | 0.00 | 69 | 1050.9 |
| 20260507035657 | 11 | 300 | 0.0 | 1.6 | 0.00 | 1.32 | 1.32 | 69 | 1051.4 |
| 20260507035153 | 11 | 300 | 0.0 | 1.6 | 0.00 | 1.32 | 1.32 | 70 | 1051.2 |
| 20260507034650 | 11 | 300 | 0.0 | 0.0 | 0.00 | 1.32 | 1.32 | 70 | 1051.0 |
| 20260507034148 | 11 | 299 | 0.0 | 0.0 | 0.00 | 1.32 | 1.32 | 69 | 1051.3 |
| 20260507033646 | 11 | 299 | 0.0 | 1.6 | 0.00 | 1.32 | 1.32 | 69 | 1051.2 |
| 20260507033143 | 11 | 301 | 0.0 | 0.0 | 0.00 | 1.32 | 1.32 | 70 | 1051.1 |
| 20260507032641 | 11 | 301 | 0.0 | 0.0 | 0.00 | 1.32 | 1.32 | 70 | 1051.0 |
| 20260507032136 | 11 | 301 | 0.0 | 1.6 | 0.00 | 1.32 | 1.32 | 70 | 1051.1 |
| 20260507031633 | 11 | 304 | 1.6 | 1.6 | 0.00 | 1.32 | 1.32 | 69 | 1050.9 |
| 20260507031130 | 11 | 302 | 0.0 | 1.6 | 0.00 | 1.32 | 1.32 | 68 | 1051.0 |
| 20260507030626 | 11 | 304 | 1.6 | 3.2 | 0.00 | 1.32 | 1.32 | 67 | 1051.0 |
| 20260507030124 | 11 | 308 | 1.6 | 3.2 | 0.00 | 1.32 | 1.32 | 67 | 1051.2 |
| 20260507025621 | 11 | 317 | 1.6 | 1.6 | 0.00 | 1.32 | 1.32 | 66 | 1051.2 |
| 20260507025118 | 12 | 312 | 1.6 | 6.4 | 0.00 | 1.32 | 1.32 | 65 | 1050.8 |
| 20260507024616 | 12 | 321 | 3.2 | 6.4 | 0.00 | 1.32 | 1.32 | 64 | 1050.5 |
| 20260507024113 | 12 | 322 | 3.2 | 4.8 | 0.00 | 1.32 | 1.32 | 64 | 1050.5 |
| 20260507023608 | 12 | 318 | 4.8 | 6.4 | 0.00 | 1.32 | 1.32 | 64 | 1050.7 |
| 20260507023106 | 12 | 337 | 6.4 | 9.7 | 0.00 | 1.32 | 1.32 | 64 | 1050.4 |
| 20260507022603 | 12 | 336 | 3.2 | 6.4 | 0.00 | 1.32 | 1.32 | 64 | 1050.1 |
| 20260507022058 | 12 | 326 | 6.4 | 11.3 | 0.00 | 1.32 | 1.32 | 64 | 1050.2 |
| 20260507021555 | 12 | 328 | 6.4 | 9.7 | 0.00 | 1.32 | 1.32 | 63 | 1050.0 |
| 20260507021051 | 12 | 313 | 8.0 | 11.3 | 0.00 | 1.32 | 1.32 | 65 | 1049.9 |
| 20260507020549 | 12 | 334 | 3.2 | 9.7 | 0.00 | 1.32 | 1.32 | 66 | 1050.1 |
| 20260507020045 | 12 | 307 | 4.8 | 4.8 | 0.00 | 1.32 | 1.32 | 68 | 1049.9 |
| 20260507015544 | 12 | 316 | 6.4 | 6.4 | 0.00 | 1.32 | 1.32 | 69 | 1049.8 |
| 20260507015041 | 12 | 310 | 3.2 | 4.8 | 0.00 | 1.32 | 1.32 | 70 | 1049.9 |
| 20260507014537 | 12 | 329 | 3.2 | 3.2 | 0.00 | 1.32 | 1.32 | 71 | 1049.7 |
| 20260507014033 | 12 | 308 | 1.6 | 1.6 | 0.00 | 1.32 | 1.32 | 70 | 1049.8 |
| 20260507013530 | 13 | 301 | 1.6 | 3.2 | 0.00 | 1.32 | 1.32 | 70 | 1049.8 |
| 20260507013027 | 13 | 296 | 1.6 | 1.6 | 0.00 | 1.32 | 1.32 | 69 | 1049.8 |
| 20260507012524 | 13 | 297 | 1.6 | 3.2 | 0.00 | 1.32 | 1.32 | 69 | 1050.0 |
| 20260507012020 | 13 | 307 | 1.6 | 3.2 | 0.00 | 1.32 | 1.32 | 70 | 1050.0 |
| 20260507011518 | 13 | 278 | 3.2 | 3.2 | 0.00 | 1.32 | 1.32 | 67 | 1049.9 |
| 20260507011014 | 13 | 288 | 1.6 | 3.2 | 0.00 | 1.32 | 1.32 | 67 | 1050.0 |
| 20260507010508 | 13 | 299 | 1.6 | 1.6 | 0.00 | 1.32 | 1.32 | 69 | 1049.8 |
| 20260507010005 | 13 | 281 | 1.6 | 1.6 | 0.00 | 1.32 | 1.32 | 70 | 1049.9 |
| 20260507005503 | 13 | 279 | 1.6 | 1.6 | 0.00 | 1.32 | 1.32 | 68 | 1049.9 |
| 20260507004959 | 13 | 255 | 1.6 | 1.6 | 0.00 | 1.32 | 1.32 | 65 | 1049.8 |
| 20260507004456 | 13 | 262 | 1.6 | 1.6 | 0.00 | 1.32 | 1.32 | 65 | 1049.9 |
| 20260507003954 | 13 | 296 | 0.0 | 1.6 | 0.00 | 1.32 | 1.32 | 65 | 1049.9 |
| 20260507003448 | 13 | 297 | 0.0 | 0.0 | 0.00 | 1.32 | 1.32 | 65 | 1049.6 |
| 20260507002944 | 13 | 303 | 1.6 | 1.6 | 0.00 | 1.32 | 1.32 | 64 | 1049.8 |
| 20260507002441 | 13 | 310 | 1.6 | 1.6 | 0.00 | 1.32 | 1.32 | 64 | 1049.6 |
| 20260507001937 | 13 | 309 | 1.6 | 3.2 | 0.00 | 1.32 | 1.32 | 63 | 1049.6 |
| 20260507001433 | 13 | 328 | 3.2 | 3.2 | 0.00 | 1.32 | 1.32 | 62 | 1049.4 |
| 20260507000931 | 13 | 296 | 1.6 | 1.6 | 0.00 | 1.32 | 1.32 | 64 | 1049.6 |
| 20260507000427 | 13 | 312 | 1.6 | 3.2 | 0.00 | 1.32 | 1.32 | 63 | 1049.4 |
| 20260506235922 | 13 | 330 | 4.8 | 6.4 | 0.00 | 1.32 | 1.32 | 61 | 1049.2 |
| 20260506235420 | 13 | 323 | 3.2 | 4.8 | 0.00 | 1.32 | 1.32 | 61 | 1049.3 |
| 20260506234915 | 13 | 331 | 3.2 | 4.8 | 0.00 | 1.32 | 1.32 | 61 | 1049.6 |
| 20260506234414 | 13 | 281 | 1.6 | 4.8 | 0.00 | 1.32 | 1.32 | 61 | 1049.7 |
| 20260506233911 | 13 | 288 | 3.2 | 11.3 | 0.00 | 1.32 | 1.32 | 60 | 1049.6 |
| 20260506233407 | 13 | 313 | 8.0 | 11.3 | 0.00 | 1.32 | 1.32 | 60 | 1049.2 |
| 20260506232904 | 14 | 327 | 4.8 | 9.7 | 0.00 | 1.32 | 1.32 | 60 | 1048.9 |
| 20260506232400 | 14 | 346 | 6.4 | 9.7 | 0.00 | 1.32 | 1.32 | 59 | 1048.8 |
| 20260506231856 | 14 | 329 | 6.4 | 6.4 | 0.00 | 1.32 | 1.32 | 60 | 1049.1 |
| 20260506231354 | 14 | 320 | 8.0 | 9.7 | 0.00 | 1.32 | 1.32 | 60 | 1049.2 |
| 20260506230851 | 14 | 327 | 9.7 | 11.3 | 0.00 | 1.32 | 1.32 | 61 | 1049.2 |
| 20260506230348 | 14 | 311 | 6.4 | 12.9 | 0.00 | 1.32 | 1.32 | 61 | 1049.4 |
| 20260506225844 | 14 | 326 | 6.4 | 9.7 | 0.00 | 1.32 | 1.32 | 62 | 1049.2 |
| 20260506225341 | 14 | 8 | 9.7 | 11.3 | 0.00 | 1.32 | 1.32 | 60 | 1048.9 |
| 20260506224838 | 15 | 319 | 6.4 | 9.7 | 0.00 | 1.32 | 1.32 | 62 | 1048.5 |
| 20260506224335 | 15 | 354 | 6.4 | 6.4 | 0.00 | 1.32 | 1.32 | 59 | 1048.3 |
| 20260506223832 | 15 | 313 | 8.0 | 14.5 | 0.00 | 1.32 | 1.32 | 61 | 1048.6 |
| 20260506223327 | 15 | 330 | 6.4 | 11.3 | 0.00 | 1.32 | 1.32 | 60 | 1048.5 |
| 20260506222824 | 15 | 298 | 9.7 | 12.9 | 0.00 | 1.32 | 1.32 | 62 | 1049.0 |
| 20260506222319 | 15 | 321 | 9.7 | 12.9 | 0.00 | 1.32 | 1.32 | 62 | 1048.7 |
| 20260506221813 | 15 | 320 | 6.4 | 9.7 | 0.00 | 1.32 | 1.32 | 64 | 1048.3 |
| 20260506221310 | 15 | 319 | 6.4 | 6.4 | 0.00 | 1.32 | 1.32 | 64 | 1048.3 |
| 20260506220808 | 15 | 324 | 3.2 | 3.2 | 0.00 | 1.32 | 1.32 | 65 | 1048.0 |
| 20260506220307 | 15 | 313 | 3.2 | 4.8 | 0.00 | 1.32 | 1.32 | 67 | 1048.1 |
| 20260506215804 | 15 | 320 | 6.4 | 6.4 | 0.00 | 1.32 | 1.32 | 68 | 1048.2 |
| 20260506215300 | 15 | 304 | 1.6 | 4.8 | 0.00 | 1.32 | 1.32 | 65 | 1048.2 |
| 20260506214756 | 15 | 303 | 1.6 | 3.2 | 0.00 | 1.32 | 1.32 | 66 | 1048.5 |
| 20260506214253 | 15 | 296 | 1.6 | 3.2 | 0.00 | 1.32 | 1.32 | 66 | 1048.6 |
| 20260506213752 | 15 | 318 | 1.6 | 3.2 | 0.00 | 1.32 | 1.32 | 66 | 1048.6 |
| 20260506213248 | 15 | 267 | 6.4 | 6.4 | 0.00 | 1.32 | 1.32 | 65 | 1049.0 |
| 20260506212746 | 15 | 265 | 3.2 | 4.8 | 0.00 | 1.32 | 1.32 | 64 | 1049.0 |
| 20260506212241 | 15 | 256 | 4.8 | 4.8 | 0.00 | 1.32 | 1.32 | 63 | 1049.0 |
| 20260506211737 | 15 | 317 | 4.8 | 6.4 | 0.00 | 1.32 | 1.32 | 64 | 1048.9 |
| 20260506211233 | 15 | 332 | 4.8 | 9.7 | 0.00 | 1.32 | 1.32 | 64 | 1048.7 |
| 20260506210731 | 15 | 289 | 1.6 | 6.4 | 0.00 | 1.32 | 1.32 | 65 | 1048.7 |
| 20260506210227 | 15 | 326 | 8.0 | 9.7 | 0.00 | 1.32 | 1.32 | 63 | 1048.7 |
| 20260506205724 | 15 | 311 | 4.8 | 4.8 | 0.00 | 1.32 | 1.32 | 66 | 1048.7 |
| 20260506205220 | 15 | 329 | 3.2 | 6.4 | 0.00 | 1.32 | 1.32 | 66 | 1048.7 |
| 20260506204717 | 15 | 315 | 4.8 | 6.4 | 0.00 | 1.32 | 1.32 | 64 | 1048.5 |
| 20260506204214 | 15 | 314 | 4.8 | 6.4 | 0.00 | 1.32 | 1.32 | 66 | 1048.7 |
| 20260506203712 | 15 | 318 | 6.4 | 9.7 | 0.00 | 1.32 | 1.32 | 65 | 1048.5 |
| 20260506203209 | 15 | 6 | 3.2 | 4.8 | 0.00 | 1.32 | 1.32 | 64 | 1048.3 |
| 20260506202707 | 15 | 326 | 3.2 | 4.8 | 0.00 | 1.32 | 1.32 | 63 | 1048.6 |
| 20260506202203 | 15 | 288 | 4.8 | 6.4 | 0.00 | 1.32 | 1.32 | 64 | 1048.6 |
| 20260506201700 | 16 | 316 | 1.6 | 9.7 | 0.00 | 1.32 | 1.32 | 62 | 1048.4 |
| 20260506201156 | 15 | 236 | 3.2 | 4.8 | 0.00 | 1.32 | 1.32 | 62 | 1048.6 |
| 20260506200653 | 15 | 295 | 8.0 | 9.7 | 0.00 | 1.32 | 1.32 | 66 | 1048.8 |
| 20260506200150 | 15 | 306 | 4.8 | 9.7 | 0.00 | 1.32 | 1.32 | 66 | 1048.8 |
| 20260506195646 | 15 | 247 | 4.8 | 6.4 | 0.00 | 1.32 | 1.32 | 65 | 1049.1 |
| 20260506195143 | 16 | 340 | 6.4 | 11.3 | 0.00 | 1.32 | 1.32 | 64 | 1049.1 |
| 20260506194640 | 16 | 293 | 3.2 | 4.8 | 0.00 | 1.32 | 1.32 | 64 | 1048.9 |
| 20260506194136 | 16 | 239 | 1.6 | 4.8 | 0.00 | 1.32 | 1.32 | 64 | 1049.2 |
| 20260506193634 | 16 | 281 | 6.4 | 9.7 | 0.00 | 1.32 | 1.32 | 65 | 1048.9 |
| 20260506193131 | 15 | 318 | 8.0 | 11.3 | 0.00 | 1.32 | 1.32 | 64 | 1048.9 |
| 20260506192628 | 16 | 328 | 8.0 | 9.7 | 0.00 | 1.32 | 1.32 | 64 | 1049.1 |
| 20260506192124 | 16 | 303 | 4.8 | 6.4 | 0.00 | 1.32 | 1.32 | 65 | 1049.0 |
| 20260506191621 | 16 | 286 | 6.4 | 9.7 | 0.00 | 1.32 | 1.32 | 64 | 1048.9 |
| 20260506191116 | 16 | 322 | 3.2 | 11.3 | 0.00 | 1.32 | 1.32 | 63 | 1048.7 |
| 20260506190614 | 15 | 308 | 3.2 | 6.4 | 0.00 | 1.32 | 1.32 | 65 | 1048.7 |
| 20260506190111 | 15 | 350 | 8.0 | 12.9 | 0.00 | 1.32 | 1.32 | 67 | 1048.6 |
| 20260506185608 | 15 | 341 | 8.0 | 9.7 | 0.00 | 1.32 | 1.32 | 64 | 1048.8 |
| 20260506185104 | 15 | 281 | 4.8 | 9.7 | 0.00 | 1.32 | 1.32 | 64 | 1049.0 |
| 20260506184602 | 16 | 297 | 8.0 | 11.3 | 0.00 | 1.32 | 1.32 | 64 | 1048.7 |
| 20260506184059 | 16 | 320 | 8.0 | 9.7 | 0.00 | 1.32 | 1.32 | 64 | 1048.7 |
| 20260506183555 | 15 | 294 | 3.2 | 6.4 | 0.00 | 1.32 | 1.32 | 65 | 1048.7 |
| 20260506183052 | 15 | 295 | 8.0 | 12.9 | 0.00 | 1.32 | 1.32 | 67 | 1048.5 |
| 20260506182549 | 15 | 330 | 4.8 | 14.5 | 0.00 | 1.32 | 1.32 | 65 | 1048.7 |
| 20260506182046 | 15 | 345 | 6.4 | 9.7 | 0.00 | 1.32 | 1.32 | 71 | 1048.7 |
| 20260506181544 | 15 | 300 | 6.4 | 9.7 | 0.00 | 1.32 | 1.32 | 68 | 1048.6 |
| 20260506181040 | 15 | 279 | 4.8 | 11.3 | 0.00 | 1.32 | 1.32 | 65 | 1048.9 |
| 20260506180537 | 15 | 303 | 1.6 | 4.8 | 0.00 | 1.32 | 1.32 | 65 | 1048.7 |
| 20260506180034 | 15 | 307 | 6.4 | 9.7 | 0.00 | 1.32 | 1.32 | 68 | 1048.8 |
| 20260506175530 | 15 | 328 | 9.7 | 11.3 | 0.00 | 1.32 | 1.32 | 70 | 1048.5 |
| 20260506175027 | 15 | 327 | 11.3 | 14.5 | 0.00 | 1.32 | 1.32 | 70 | 1048.3 |
| 20260506174526 | 15 | 350 | 14.5 | 16.1 | 0.00 | 1.32 | 1.32 | 69 | 1048.8 |
| 20260506174021 | 15 | 320 | 6.4 | 11.3 | 0.00 | 1.32 | 1.32 | 72 | 1048.5 |
| 20260506173519 | 15 | 311 | 9.7 | 14.5 | 0.00 | 1.32 | 1.32 | 75 | 1048.5 |
| 20260506173016 | 15 | 329 | 3.2 | 17.7 | 0.00 | 1.32 | 1.32 | 72 | 1048.4 |
| 20260506172514 | 15 | 331 | 11.3 | 16.1 | 0.00 | 1.32 | 1.32 | 71 | 1048.6 |
| 20260506172009 | 15 | 353 | 3.2 | 6.4 | 0.00 | 1.32 | 1.32 | 67 | 1048.7 |
| 20260506171507 | 14 | 304 | 9.7 | 14.5 | 0.00 | 1.32 | 1.32 | 72 | 1048.6 |
| 20260506171005 | 14 | 304 | 12.9 | 14.5 | 0.00 | 1.32 | 1.32 | 72 | 1049.1 |
| 20260506170502 | 15 | 327 | 8.0 | 12.9 | 0.00 | 1.32 | 1.32 | 69 | 1049.0 |